This is the latest recevied weather packets stored in our database for station/object IW1AXR-3. If no packets are shown the sender has not sent any weather packets the latest 10 day(s).
| Time | Temp. | Humidity | Pressure | Rain* | Wind** | Luminosity | Snow |
|---|---|---|---|---|---|---|---|
| 1777919109 | 12.22° C | 79% | 1015 hPa | - | - | - | - |
| 1777917902 | 12.78° C | 76% | 1015.1 hPa | - | - | - | - |
| 1777915488 | 13.33° C | 74% | 1014.9 hPa | - | - | - | - |
| 1777914885 | 13.89° C | 75% | 1014.8 hPa | - | - | - | - |
| 1777914281 | 13.89° C | 73% | 1014.9 hPa | - | - | - | - |
| 1777913074 | 13.89° C | 75% | 1014.9 hPa | - | - | - | - |
| 1777908851 | 14.44° C | 68% | 1015 hPa | - | - | - | - |
| 1777908247 | 15° C | 65% | 1014.9 hPa | - | - | - | - |
| 1777907040 | 15.56° C | 63% | 1015 hPa | - | - | - | - |
| 1777904627 | 16.67° C | 58% | 1015.2 hPa | - | - | - | - |
| 1777904023 | 17.22° C | 57% | 1015.3 hPa | - | - | - | - |
| 1777902815 | 17.78° C | 59% | 1015.6 hPa | - | - | - | - |
| 1777892176 | 16.67° C | 56% | 1016.1 hPa | - | - | - | - |
| 1777891558 | 18.89° C | 51% | 1016.1 hPa | - | - | - | - |
| 1777885237 | 15° C | 67% | 1016.2 hPa | - | - | - | - |
| 1777885189 | 15° C | 67% | 1016.2 hPa | - | - | - | - |
| 1777878527 | 13.33° C | 83% | 1015.9 hPa | - | - | - | - |
| 1777876715 | 13.33° C | 82% | 1015.6 hPa | - | - | - | - |
| 1777876112 | 12.22° C | 86% | 1015.5 hPa | - | - | - | - |
| 1777875508 | 12.22° C | 86% | 1015.5 hPa | - | - | - | - |
| 1777873694 | 11.11° C | 86% | 1015.2 hPa | - | - | - | - |
| 1777872488 | 10.56° C | 87% | 1015 hPa | - | - | - | - |
| 1777871884 | 10.56° C | 87% | 1015 hPa | - | - | - | - |
| 1777871278 | 10.56° C | 88% | 1015.1 hPa | - | - | - | - |
| 1777870071 | 10° C | 87% | 1015.1 hPa | - | - | - | - |
* Rain since midnight (hover to see other rain measurements)
** Current wind speed in m/s (hover to see current wind gust speed)